Time;durP1;ratioP1;P1;durP2;ratioP2;P2;SDS_P1;SDS_P2;PMS_P1;PMS_P2;Temp;Humidity;BMP_temperature;BMP_pressure;BME280_temperature;BME280_humidity;BME280_pressure;Samples;Min_cycle;Max_cycle;Signal;HPM_P1;HPM_P2
2022/12/23 00:00:16;;;;;;;33.53;21.73;;;7.90;99.90;;;;;;4995754;28;20130;-85
2022/12/23 00:02:41;;;;;;;31.30;20.67;;;7.90;99.90;;;;;;4979283;28;20042;-84
2022/12/23 00:05:07;;;;;;;32.83;20.70;;;7.90;99.90;;;;;;4974918;28;20121;-85
2022/12/23 00:07:33;;;;;;;32.40;20.25;;;7.90;99.90;;;;;;4980671;28;20053;-84
2022/12/23 00:09:59;;;;;;;45.75;29.88;;;7.90;99.90;;;;;;4995963;28;20065;-85
2022/12/23 00:15:10;;;;;;;37.05;21.95;;;7.90;99.90;;;;;;4961036;28;20046;-84
2022/12/23 00:17:39;;;;;;;29.17;19.02;;;7.90;99.90;;;;;;4976289;28;20051;-84
2022/12/23 00:20:06;;;;;;;30.73;19.15;;;7.90;99.90;;;;;;4977886;28;20061;-84
2022/12/23 00:25:16;;;;;;;30.83;20.40;;;7.90;99.90;;;;;;4995404;28;20039;-84
2022/12/23 00:28:00;;;;;;;28.45;18.20;;;7.90;99.90;;;;;;4978239;28;20042;-85
2022/12/23 00:30:26;;;;;;;48.78;30.73;;;7.90;99.90;;;;;;4975391;28;20047;-85
2022/12/23 00:32:52;;;;;;;31.00;21.55;;;7.90;99.90;;;;;;4976847;28;20421;-85
2022/12/23 00:35:17;;;;;;;29.67;18.95;;;7.90;99.90;;;;;;4995201;28;20117;-84
2022/12/23 00:37:43;;;;;;;53.22;32.22;;;7.90;99.90;;;;;;4975535;28;20077;-84
2022/12/23 00:42:57;;;;;;;37.25;23.00;;;8.00;99.90;;;;;;4996025;28;20050;-84
2022/12/23 00:45:22;;;;;;;33.47;20.48;;;7.90;99.90;;;;;;4995380;28;20479;-84
2022/12/23 00:50:36;;;;;;;31.80;21.40;;;8.00;99.90;;;;;;4978102;28;20481;-84
2022/12/23 00:53:01;;;;;;;31.73;20.95;;;8.00;99.90;;;;;;4978361;28;20742;-84
2022/12/23 00:55:27;;;;;;;108.82;49.88;;;8.00;99.90;;;;;;4973674;28;20059;-84
2022/12/23 00:57:53;;;;;;;100.88;47.05;;;8.00;99.90;;;;;;4990266;28;20050;-85
2022/12/23 01:00:19;;;;;;;91.70;48.85;;;8.00;99.90;;;;;;4977701;28;20473;-85
2022/12/23 01:05:38;;;;;;;58.85;32.72;;;8.10;99.90;;;;;;4995262;28;20500;-84
2022/12/23 01:08:11;;;;;;;46.85;28.02;;;8.10;99.90;;;;;;4975326;28;20051;-85
2022/12/23 01:10:39;;;;;;;35.85;22.05;;;8.00;99.90;;;;;;4969722;28;20449;-84
2022/12/23 01:13:05;;;;;;;35.40;22.20;;;8.00;99.90;;;;;;4977915;28;20077;-85
2022/12/23 01:15:31;;;;;;;32.25;21.02;;;8.00;99.90;;;;;;4993835;28;20046;-84
2022/12/23 01:17:57;;;;;;;32.45;20.63;;;8.00;99.90;;;;;;4974807;28;20050;-84
2022/12/23 01:20:23;;;;;;;33.85;21.63;;;8.00;99.90;;;;;;4984302;28;20073;-84
2022/12/23 01:22:49;;;;;;;46.22;27.35;;;8.00;99.90;;;;;;4976750;28;20077;-85
2022/12/23 01:25:14;;;;;;;41.85;23.15;;;8.00;99.90;;;;;;4995081;28;20082;-84
2022/12/23 01:27:40;;;;;;;35.92;22.75;;;8.00;99.90;;;;;;4977485;28;20050;-85
2022/12/23 01:30:06;;;;;;;36.95;22.55;;;7.90;99.90;;;;;;4976603;28;20034;-84
2022/12/23 01:32:32;;;;;;;39.05;22.33;;;7.90;99.90;;;;;;4974209;28;20051;-84
2022/12/23 01:34:58;;;;;;;49.90;30.20;;;7.90;99.90;;;;;;4982455;28;20398;-84
2022/12/23 01:37:23;;;;;;;42.85;26.33;;;7.90;99.90;;;;;;4973092;28;20101;-85
2022/12/23 01:39:49;;;;;;;42.60;24.35;;;7.90;99.90;;;;;;4961045;28;20050;-84
2022/12/23 01:45:08;;;;;;;36.58;21.40;;;7.90;99.90;;;;;;4994066;28;20585;-84
2022/12/23 01:48:00;;;;;;;33.28;22.00;;;7.90;99.90;;;;;;4994817;28;20073;-84
2022/12/23 01:50:47;;;;;;;49.63;28.65;;;7.90;99.90;;;;;;4976987;28;20050;-84
2022/12/23 01:53:18;;;;;;;48.70;29.98;;;7.90;99.90;;;;;;4973700;28;20057;-84
2022/12/23 01:55:55;;;;;;;44.63;27.05;;;7.90;99.90;;;;;;4972094;28;20054;-84
2022/12/23 01:58:35;;;;;;;38.28;24.77;;;7.90;99.90;;;;;;4975771;28;20054;-84
2022/12/23 02:03:48;;;;;;;47.45;28.10;;;7.90;99.90;;;;;;4994740;28;20421;-84
2022/12/23 02:09:25;;;;;;;45.72;26.60;;;8.00;99.90;;;;;;4994316;28;20137;-84
2022/12/23 02:11:53;;;;;;;48.15;28.85;;;7.90;99.90;;;;;;4993523;28;20046;-84
2022/12/23 02:17:52;;;;;;;47.65;28.08;;;7.90;99.90;;;;;;4976558;28;20050;-84
2022/12/23 02:20:42;;;;;;;41.42;26.10;;;8.00;99.90;;;;;;4941816;29;20512;-84
2022/12/23 02:23:27;;;;;;;30.45;20.23;;;7.90;99.90;;;;;;4971501;28;20062;-84
2022/12/23 02:26:26;;;;;;;31.77;20.63;;;7.90;99.90;;;;;;4993376;28;20049;-84
2022/12/23 02:29:16;;;;;;;31.88;20.10;;;7.90;99.90;;;;;;4967514;28;20054;-84
2022/12/23 02:32:06;;;;;;;33.45;21.10;;;7.90;99.90;;;;;;4966520;28;20042;-84
2022/12/23 02:34:36;;;;;;;48.55;27.48;;;7.90;99.90;;;;;;4992756;28;20096;-84
2022/12/23 02:37:22;;;;;;;33.67;22.17;;;7.90;99.90;;;;;;4993933;28;20051;-84
2022/12/23 02:40:14;;;;;;;36.00;22.73;;;8.00;99.90;;;;;;4992863;28;20038;-84
2022/12/23 02:43:07;;;;;;;36.00;20.70;;;8.00;99.90;;;;;;4958113;28;20050;-84
2022/12/23 02:45:48;;;;;;;46.70;26.63;;;7.90;99.90;;;;;;4975779;28;20038;-84
2022/12/23 02:48:29;;;;;;;39.17;24.15;;;7.90;99.90;;;;;;4992268;28;20046;-84
2022/12/23 02:50:56;;;;;;;33.50;20.90;;;7.90;99.90;;;;;;4974180;28;20054;-84
2022/12/23 02:53:31;;;;;;;31.17;19.90;;;8.00;99.90;;;;;;5003627;28;20045;-84
2022/12/23 02:55:59;;;;;;;46.58;27.25;;;8.00;99.90;;;;;;5012519;28;20046;-85
2022/12/23 02:58:32;;;;;;;45.67;25.92;;;7.90;99.90;;;;;;4976785;28;20053;-84
2022/12/23 03:01:00;;;;;;;43.03;24.50;;;8.00;99.90;;;;;;4993228;28;20073;-84
2022/12/23 03:03:27;;;;;;;41.85;24.65;;;8.00;99.90;;;;;;4992880;28;20435;-84
2022/12/23 03:05:53;;;;;;;39.30;23.73;;;8.00;99.90;;;;;;4972560;28;20053;-84
2022/12/23 03:08:28;;;;;;;40.75;23.88;;;8.00;99.90;;;;;;4974645;28;20038;-83
2022/12/23 03:11:10;;;;;;;38.03;23.17;;;8.00;99.90;;;;;;4975217;28;20046;-84
2022/12/23 03:13:56;;;;;;;45.80;27.20;;;8.00;99.90;;;;;;4972580;28;20043;-84
2022/12/23 03:16:40;;;;;;;31.45;20.25;;;8.00;99.90;;;;;;4976251;28;20549;-83
2022/12/23 03:19:18;;;;;;;53.78;28.10;;;8.00;99.90;;;;;;4992418;28;20397;-83
2022/12/23 03:22:03;;;;;;;43.95;25.77;;;7.90;99.90;;;;;;4980823;28;20104;-83
2022/12/23 03:24:39;;;;;;;43.60;25.10;;;8.00;99.90;;;;;;4994384;28;20046;-84
2022/12/23 03:27:43;;;;;;;46.10;26.10;;;8.00;99.90;;;;;;4999902;28;20089;-84
2022/12/23 03:30:13;;;;;;;;;;;8.00;99.90;;;;;;4950351;28;20494;-84
2022/12/23 03:32:48;;;;;;;42.47;23.83;;;7.90;99.90;;;;;;4975997;28;19918;-83
2022/12/23 03:35:18;;;;;;;42.00;24.08;;;7.90;99.90;;;;;;4998860;28;20077;-84
2022/12/23 03:37:49;;;;;;;46.05;25.00;;;7.90;99.90;;;;;;4981415;28;20125;-84
2022/12/23 03:40:41;;;;;;;40.60;23.02;;;7.90;99.90;;;;;;4999649;28;20131;-84
2022/12/23 03:43:12;;;;;;;42.85;23.27;;;7.90;99.90;;;;;;4969466;28;20066;-84
2022/12/23 03:45:42;;;;;;;45.05;23.60;;;7.90;99.90;;;;;;4997921;28;20042;-84
2022/12/23 03:48:41;;;;;;;44.78;23.02;;;7.90;99.90;;;;;;4977736;28;20042;-84
2022/12/23 03:51:17;;;;;;;41.72;22.95;;;7.90;99.90;;;;;;4978366;28;20093;-84
2022/12/23 03:54:07;;;;;;;42.08;23.35;;;7.90;99.90;;;;;;4978057;28;20042;-84
2022/12/23 03:56:45;;;;;;;33.38;19.67;;;7.90;99.90;;;;;;4998087;28;20124;-84
2022/12/23 03:59:18;;;;;;;30.65;19.60;;;7.90;99.90;;;;;;4998830;28;20093;-84
2022/12/23 04:02:09;;;;;;;27.47;18.70;;;7.90;99.90;;;;;;4981579;28;20050;-83
2022/12/23 04:05:05;;;;;;;28.30;17.88;;;7.90;99.90;;;;;;4978821;28;20070;-84
2022/12/23 04:07:37;;;;;;;28.15;17.92;;;7.90;99.90;;;;;;4978601;28;20495;-84
2022/12/23 04:10:03;;;;;;;29.75;18.23;;;7.90;99.90;;;;;;4995499;28;20049;-84
2022/12/23 04:12:30;;;;;;;33.30;19.95;;;7.80;99.90;;;;;;4997833;28;20045;-84
2022/12/23 04:14:56;;;;;;;27.30;18.30;;;7.90;99.90;;;;;;4999180;28;20034;-84
2022/12/23 04:17:21;;;;;;;30.40;18.45;;;7.80;99.90;;;;;;4999100;28;20049;-84
2022/12/23 04:19:47;;;;;;;31.10;18.48;;;7.80;99.90;;;;;;4998807;28;20034;-84
2022/12/23 04:22:14;;;;;;;30.52;18.65;;;7.80;99.90;;;;;;4981044;28;20046;-83
2022/12/23 04:24:40;;;;;;;28.92;17.83;;;7.80;99.90;;;;;;4981718;28;20046;-84
2022/12/23 04:27:08;;;;;;;27.10;16.60;;;7.80;99.90;;;;;;4980790;28;20070;-84
2022/12/23 04:29:34;;;;;;;33.45;18.92;;;7.80;99.90;;;;;;4999233;28;20065;-83
2022/12/23 04:31:59;;;;;;;28.80;18.05;;;7.80;99.90;;;;;;4999348;28;20482;-83
2022/12/23 04:34:25;;;;;;;36.03;19.08;;;7.80;99.90;;;;;;4977491;28;20078;-84
2022/12/23 04:36:50;;;;;;;33.75;18.65;;;7.80;99.90;;;;;;4995629;28;20070;-84
2022/12/23 04:39:16;;;;;;;38.80;20.52;;;7.80;99.90;;;;;;4994606;28;20042;-84
2022/12/23 04:41:41;;;;;;;40.78;21.75;;;7.80;99.90;;;;;;4975189;28;20066;-84
2022/12/23 04:44:07;;;;;;;29.08;18.20;;;7.80;99.90;;;;;;4974229;28;20045;-84
2022/12/23 04:46:33;;;;;;;27.83;17.30;;;7.80;99.90;;;;;;4974690;28;20157;-84
2022/12/23 04:48:58;;;;;;;27.25;16.73;;;7.80;99.90;;;;;;4975997;28;20042;-83
2022/12/23 04:51:24;;;;;;;36.78;19.75;;;7.80;99.90;;;;;;4996063;28;20053;-84
2022/12/23 04:53:49;;;;;;;49.22;21.50;;;7.80;99.90;;;;;;4977252;28;20046;-83
2022/12/23 04:56:15;;;;;;;29.80;17.40;;;7.80;99.90;;;;;;4978091;28;20457;-84
2022/12/23 04:58:40;;;;;;;23.60;15.75;;;7.80;99.90;;;;;;4995751;28;20133;-84
2022/12/23 05:01:08;;;;;;;25.90;15.70;;;7.80;99.90;;;;;;4994693;28;20038;-84
2022/12/23 05:03:34;;;;;;;54.70;21.25;;;7.80;99.90;;;;;;4995105;28;20130;-83
2022/12/23 05:06:00;;;;;;;59.92;20.35;;;7.80;99.90;;;;;;4975653;28;20130;-83
2022/12/23 05:08:26;;;;;;;29.73;16.05;;;7.80;99.90;;;;;;4976788;28;20093;-84
2022/12/23 05:10:51;;;;;;;29.40;16.45;;;7.80;99.90;;;;;;4995348;28;20035;-83
2022/12/23 05:13:17;;;;;;;46.70;20.63;;;7.80;99.90;;;;;;4974289;28;20557;-84
2022/12/23 05:15:44;;;;;;;47.42;18.95;;;7.80;99.90;;;;;;4973857;28;20068;-84
2022/12/23 05:18:10;;;;;;;24.15;16.08;;;7.80;99.90;;;;;;5002164;28;20050;-83
2022/12/23 05:20:35;;;;;;;24.25;15.00;;;7.80;99.90;;;;;;4984021;28;20045;-84
2022/12/23 05:23:01;;;;;;;27.35;17.02;;;7.80;99.90;;;;;;5008727;28;20046;-83
2022/12/23 05:25:26;;;;;;;29.33;15.85;;;7.90;99.90;;;;;;4977169;28;20068;-84
2022/12/23 05:27:52;;;;;;;26.40;15.63;;;7.80;99.90;;;;;;4977192;28;20120;-84
2022/12/23 05:30:17;;;;;;;23.70;15.18;;;7.80;99.90;;;;;;4993846;28;20430;-83
2022/12/23 05:32:43;;;;;;;28.63;15.93;;;7.80;99.90;;;;;;4977714;28;20053;-84
2022/12/23 05:35:09;;;;;;;40.60;17.35;;;7.80;99.90;;;;;;4995152;28;20441;-84
2022/12/23 05:37:35;;;;;;;27.42;16.33;;;7.80;99.90;;;;;;4977575;28;20142;-84
2022/12/23 05:40:01;;;;;;;31.45;16.38;;;7.80;99.90;;;;;;4994815;28;20041;-83
2022/12/23 05:42:26;;;;;;;34.88;17.90;;;7.80;99.90;;;;;;4976896;28;20054;-84
2022/12/23 05:44:52;;;;;;;23.55;15.23;;;7.80;99.90;;;;;;4976548;28;20042;-84
2022/12/23 05:47:18;;;;;;;37.58;16.65;;;7.80;99.90;;;;;;4994531;28;20094;-84
2022/12/23 05:49:43;;;;;;;25.60;15.05;;;7.80;99.90;;;;;;4976182;28;20069;-83
2022/12/23 05:52:09;;;;;;;83.85;19.88;;;7.80;99.90;;;;;;4994374;28;20383;-84
2022/12/23 05:54:34;;;;;;;23.48;15.05;;;7.80;99.90;;;;;;4976506;28;20137;-83
2022/12/23 05:57:00;;;;;;;25.38;15.45;;;7.70;99.90;;;;;;4993561;28;20050;-84
2022/12/23 05:59:25;;;;;;;46.67;18.02;;;7.80;99.90;;;;;;4994086;28;20038;-84
2022/12/23 06:01:51;;;;;;;25.77;14.77;;;7.80;99.90;;;;;;4994513;28;20042;-83
2022/12/23 06:04:16;;;;;;;24.65;15.40;;;7.70;99.90;;;;;;4993418;28;20034;-84
2022/12/23 06:06:42;;;;;;;64.07;20.20;;;7.80;99.90;;;;;;4974234;28;20050;-84
2022/12/23 06:09:08;;;;;;;38.45;17.88;;;7.70;99.90;;;;;;4982869;28;20046;-84
2022/12/23 06:11:34;;;;;;;26.38;14.98;;;7.70;99.90;;;;;;4976170;28;20119;-84
2022/12/23 06:13:59;;;;;;;26.33;16.15;;;7.70;99.90;;;;;;4973718;28;20504;-84
2022/12/23 06:16:25;;;;;;;27.52;15.63;;;7.70;99.90;;;;;;4975507;28;20189;-84
2022/12/23 06:18:55;;;;;;;28.17;16.80;;;7.70;99.90;;;;;;4974015;28;20042;-84
2022/12/23 06:21:20;;;;;;;26.10;14.98;;;7.70;99.90;;;;;;4975752;28;20096;-84
2022/12/23 06:23:46;;;;;;;24.48;14.82;;;7.70;99.90;;;;;;4975954;28;20046;-84
2022/12/23 06:26:11;;;;;;;25.92;15.20;;;7.70;99.90;;;;;;4993009;28;20410;-84
2022/12/23 06:28:37;;;;;;;22.73;14.70;;;7.70;99.90;;;;;;4974823;28;20479;-83
2022/12/23 06:31:03;;;;;;;25.13;14.93;;;7.70;99.90;;;;;;4994159;28;20586;-84
2022/12/23 06:33:28;;;;;;;25.45;14.88;;;7.70;99.90;;;;;;4992594;28;20041;-83
2022/12/23 06:35:54;;;;;;;54.58;16.55;;;7.70;99.90;;;;;;4994489;28;20050;-83
2022/12/23 06:38:19;;;;;;;31.23;15.02;;;7.70;99.90;;;;;;4993052;28;20085;-83
2022/12/23 06:40:45;;;;;;;27.52;15.43;;;7.70;99.90;;;;;;4976299;28;20121;-84
2022/12/23 06:43:12;;;;;;;27.67;14.23;;;7.60;99.90;;;;;;4972991;28;20038;-84
2022/12/23 06:45:38;;;;;;;25.73;16.35;;;7.60;99.90;;;;;;4992806;28;20125;-84
2022/12/23 06:48:06;;;;;;;58.53;15.77;;;7.70;99.90;;;;;;4975293;28;20113;-83
2022/12/23 06:50:32;;;;;;;26.77;14.07;;;7.70;99.90;;;;;;4976890;28;20042;-82
2022/12/23 06:52:58;;;;;;;18.73;12.18;;;7.60;99.90;;;;;;4959515;28;20130;-82
2022/12/23 06:55:23;;;;;;;23.40;13.95;;;7.60;99.90;;;;;;4976080;28;20448;-82
2022/12/23 06:57:49;;;;;;;21.70;13.43;;;7.60;99.90;;;;;;4994746;28;20054;-82
2022/12/23 07:00:15;;;;;;;39.63;14.35;;;7.60;99.90;;;;;;4974184;28;20046;-82
2022/12/23 07:02:41;;;;;;;21.45;12.95;;;7.60;99.90;;;;;;4977642;28;20077;-82
2022/12/23 07:05:07;;;;;;;27.27;12.65;;;7.60;99.90;;;;;;4977140;28;20086;-82
2022/12/23 07:07:32;;;;;;;20.13;12.98;;;7.60;99.90;;;;;;4975655;28;20407;-82
2022/12/23 07:09:58;;;;;;;19.27;12.98;;;7.60;99.90;;;;;;4975848;28;20039;-82
2022/12/23 07:12:24;;;;;;;45.60;14.23;;;7.60;99.90;;;;;;4976984;28;20133;-83
2022/12/23 07:14:49;;;;;;;20.08;12.07;;;7.60;99.90;;;;;;4973893;28;20069;-82
2022/12/23 07:17:15;;;;;;;20.23;12.63;;;7.60;99.90;;;;;;4975718;28;20070;-83
2022/12/23 07:19:40;;;;;;;23.15;14.20;;;7.50;99.90;;;;;;4976178;28;20054;-84
2022/12/23 07:22:07;;;;;;;19.80;12.82;;;7.60;99.90;;;;;;4974963;28;20046;-84
2022/12/23 07:24:32;;;;;;;27.38;14.95;;;7.60;99.90;;;;;;4976605;28;20043;-86
2022/12/23 07:26:58;;;;;;;21.50;12.52;;;7.50;99.90;;;;;;4993580;28;20371;-85
2022/12/23 07:29:24;;;;;;;21.95;13.25;;;7.50;99.90;;;;;;4974906;28;20054;-87
2022/12/23 07:31:49;;;;;;;21.27;12.85;;;7.60;99.90;;;;;;4972476;28;20042;-87
2022/12/23 07:34:15;;;;;;;18.73;12.13;;;7.50;99.90;;;;;;4974393;28;20042;-89
2022/12/23 07:36:40;;;;;;;18.33;11.02;;;7.50;99.90;;;;;;4976432;28;20081;-89
2022/12/23 07:39:06;;;;;;;21.30;13.05;;;7.50;99.90;;;;;;4993960;28;20045;-88
2022/12/23 07:41:32;;;;;;;18.42;11.57;;;7.50;99.90;;;;;;4975893;28;20078;-84
2022/12/23 07:43:57;;;;;;;19.45;12.35;;;7.50;99.90;;;;;;4991852;28;20037;-86
2022/12/23 07:46:23;;;;;;;20.92;12.68;;;7.50;99.90;;;;;;4993187;28;20038;-86
2022/12/23 07:48:49;;;;;;;20.73;12.82;;;7.50;99.90;;;;;;4972867;28;20043;-85
2022/12/23 07:51:14;;;;;;;21.88;12.82;;;7.50;99.90;;;;;;4987397;28;20056;-85
2022/12/23 07:53:40;;;;;;;29.50;13.15;;;7.50;99.90;;;;;;4993364;28;20034;-86
2022/12/23 07:56:06;;;;;;;20.55;12.80;;;7.50;99.90;;;;;;4993055;28;20146;-85
2022/12/23 07:58:31;;;;;;;19.67;12.07;;;7.50;99.90;;;;;;4974911;28;20070;-85
2022/12/23 08:01:02;;;;;;;26.30;13.45;;;7.50;99.90;;;;;;4976034;28;20042;-85
2022/12/23 08:03:28;;;;;;;19.83;11.95;;;7.50;99.90;;;;;;4974497;28;20458;-85
2022/12/23 08:06:05;;;;;;;17.73;11.93;;;7.50;99.90;;;;;;4979960;28;20066;-85
2022/12/23 08:08:31;;;;;;;21.38;12.52;;;7.50;99.90;;;;;;4975706;28;20043;-85
2022/12/23 08:11:03;;;;;;;20.33;11.68;;;7.40;99.90;;;;;;4992092;28;20045;-85
2022/12/23 08:13:30;;;;;;;20.88;12.48;;;7.50;99.90;;;;;;4974020;28;20509;-84
2022/12/23 08:15:58;;;;;;;21.70;11.95;;;7.50;99.90;;;;;;4976295;28;20051;-86
2022/12/23 08:18:24;;;;;;;19.20;12.30;;;7.50;99.90;;;;;;4976020;28;20053;-84
2022/12/23 08:21:07;;;;;;;20.73;12.18;;;7.50;99.90;;;;;;4980399;28;20043;-85
2022/12/23 08:23:33;;;;;;;21.85;11.82;;;7.50;99.90;;;;;;4992133;28;20414;-85
2022/12/23 08:26:04;;;;;;;18.42;11.65;;;7.40;99.90;;;;;;4995774;28;20042;-86
2022/12/23 08:28:34;;;;;;;22.02;12.75;;;7.50;99.90;;;;;;4996470;28;20121;-88
2022/12/23 08:31:08;;;;;;;17.83;10.93;;;7.50;99.90;;;;;;4995905;28;20030;-87
2022/12/23 08:33:36;;;;;;;20.38;12.10;;;7.40;99.90;;;;;;4995558;28;20042;-86
2022/12/23 08:36:04;;;;;;;19.20;11.70;;;7.40;99.90;;;;;;4996763;28;20466;-86
2022/12/23 08:38:30;;;;;;;18.90;11.18;;;7.50;99.90;;;;;;4978345;28;20050;-87
2022/12/23 08:40:55;;;;;;;20.48;12.32;;;7.40;99.90;;;;;;4979503;28;20045;-87
2022/12/23 08:43:21;;;;;;;31.20;14.75;;;7.50;99.90;;;;;;4979321;28;20401;-87
2022/12/23 08:45:47;;;;;;;19.75;11.60;;;7.50;99.90;;;;;;4978314;28;20046;-87
2022/12/23 08:48:13;;;;;;;20.98;12.43;;;7.50;99.90;;;;;;4979058;28;20081;-87
2022/12/23 08:50:40;;;;;;;37.75;15.63;;;7.50;99.90;;;;;;4996577;28;20394;-87
2022/12/23 08:53:06;;;;;;;20.55;11.60;;;7.40;99.90;;;;;;4995761;28;20039;-87
2022/12/23 08:55:39;;;;;;;21.30;12.65;;;7.50;99.90;;;;;;4996648;28;20047;-87
2022/12/23 08:58:05;;;;;;;22.83;12.73;;;7.50;99.90;;;;;;4979253;28;20477;-87
2022/12/23 09:00:31;;;;;;;18.42;11.98;;;7.50;99.90;;;;;;4977832;28;20050;-87
2022/12/23 09:02:57;;;;;;;24.75;14.20;;;7.40;99.90;;;;;;4996720;28;20050;-84
2022/12/23 09:05:22;;;;;;;20.38;11.15;;;7.50;99.90;;;;;;4996379;28;20553;-84
2022/12/23 09:07:48;;;;;;;18.70;11.25;;;7.50;99.90;;;;;;4978274;28;20046;-84
2022/12/23 09:10:13;;;;;;;20.13;11.70;;;7.50;99.90;;;;;;4995885;28;20166;-84
2022/12/23 09:12:39;;;;;;;41.67;17.70;;;7.50;99.90;;;;;;4978737;28;20034;-85
2022/12/23 09:15:05;;;;;;;22.48;12.52;;;7.50;99.90;;;;;;4978286;28;20089;-85
2022/12/23 09:17:32;;;;;;;20.65;12.35;;;7.50;99.90;;;;;;4995752;28;20134;-84
2022/12/23 09:19:57;;;;;;;32.05;16.23;;;7.50;99.90;;;;;;4996088;28;20054;-84
2022/12/23 09:22:23;;;;;;;19.73;11.63;;;7.50;99.90;;;;;;4994442;28;20043;-84
2022/12/23 09:24:48;;;;;;;17.35;10.32;;;7.50;99.90;;;;;;4978607;28;20399;-84
2022/12/23 09:27:14;;;;;;;16.17;10.50;;;7.60;99.90;;;;;;4978583;28;20082;-84
2022/12/23 09:29:40;;;;;;;36.10;17.30;;;7.50;99.90;;;;;;4977820;28;20053;-85
2022/12/23 09:32:05;;;;;;;17.65;11.13;;;7.60;99.90;;;;;;4996231;28;20117;-84
2022/12/23 09:34:31;;;;;;;21.17;12.27;;;7.60;99.90;;;;;;4978172;28;20045;-84
2022/12/23 09:36:57;;;;;;;31.65;15.45;;;7.60;99.90;;;;;;4977888;28;20531;-84
2022/12/23 09:39:23;;;;;;;40.80;17.92;;;7.60;99.90;;;;;;4995072;28;20045;-84
2022/12/23 09:42:24;;;;;;;40.70;16.95;;;7.60;99.90;;;;;;4994683;28;20402;-85
2022/12/23 09:45:18;;;;;;;36.20;15.75;;;7.60;99.90;;;;;;4978070;28;20562;-84
2022/12/23 09:47:44;;;;;;;38.63;16.10;;;7.60;99.90;;;;;;4978168;28;20077;-84
2022/12/23 09:50:31;;;;;;;23.13;12.27;;;7.60;99.90;;;;;;4994486;28;20213;-84
2022/12/23 09:53:07;;;;;;;30.85;15.63;;;7.70;99.90;;;;;;4977966;28;20050;-84
2022/12/23 09:55:33;;;;;;;23.95;13.20;;;7.70;99.90;;;;;;4977826;28;20058;-85
2022/12/23 09:58:03;;;;;;;25.52;13.63;;;7.70;99.90;;;;;;4994102;28;20413;-84
2022/12/23 10:00:38;;;;;;;20.58;12.15;;;7.60;99.90;;;;;;4995031;28;20038;-85
2022/12/23 10:03:28;;;;;;;20.85;12.30;;;7.60;99.90;;;;;;4977264;28;20078;-85
2022/12/23 10:06:18;;;;;;;21.23;11.70;;;7.70;99.90;;;;;;4977924;28;20053;-85
2022/12/23 10:08:47;;;;;;;26.95;13.52;;;7.70;99.90;;;;;;4977485;28;20053;-84
2022/12/23 10:11:19;;;;;;;21.40;12.43;;;7.70;99.90;;;;;;4976540;28;20375;-84
2022/12/23 10:13:53;;;;;;;25.48;13.18;;;7.70;99.90;;;;;;4995208;28;20394;-84
2022/12/23 10:16:26;;;;;;;20.10;12.48;;;7.70;99.90;;;;;;4994449;28;20157;-84
2022/12/23 10:19:11;;;;;;;;;;;7.70;99.90;;;;;;4994697;28;20050;-84
2022/12/23 10:21:45;;;;;;;22.58;12.10;;;7.70;99.90;;;;;;4995078;28;19929;-85
2022/12/23 10:24:23;;;;;;;19.23;11.13;;;7.70;99.90;;;;;;4993849;28;20065;-85
2022/12/23 10:26:54;;;;;;;24.48;12.30;;;7.70;99.90;;;;;;4977598;28;20038;-85
2022/12/23 10:29:23;;;;;;;22.05;12.02;;;7.70;99.90;;;;;;4994427;28;20077;-85
2022/12/23 10:32:15;;;;;;;21.88;11.57;;;7.70;99.90;;;;;;4976460;28;20038;-84
2022/12/23 10:34:50;;;;;;;18.90;10.63;;;7.80;99.90;;;;;;4993932;28;20050;-85
2022/12/23 10:37:33;;;;;;;23.27;11.55;;;7.80;99.90;;;;;;4994112;28;20046;-85
2022/12/23 10:40:14;;;;;;;20.42;10.43;;;7.80;99.90;;;;;;4976488;28;20073;-85
2022/12/23 10:43:02;;;;;;;19.00;10.75;;;7.80;99.90;;;;;;4977224;28;20046;-84
2022/12/23 10:45:47;;;;;;;21.38;11.40;;;7.80;99.90;;;;;;4976126;28;20081;-84
2022/12/23 10:48:23;;;;;;;24.33;12.10;;;7.80;99.90;;;;;;4976919;28;20056;-85
2022/12/23 10:51:03;;;;;;;19.10;11.27;;;7.80;99.90;;;;;;4977244;28;20061;-85
2022/12/23 10:53:45;;;;;;;17.92;10.43;;;7.90;99.90;;;;;;4976266;28;20050;-84
2022/12/23 10:56:11;;;;;;;19.73;10.50;;;7.80;99.90;;;;;;4976327;28;20077;-84
2022/12/23 10:58:42;;;;;;;25.15;13.45;;;7.90;99.90;;;;;;4994539;28;20042;-85
2022/12/23 11:01:10;;;;;;;25.48;12.98;;;7.90;99.90;;;;;;4993131;28;20045;-85
2022/12/23 11:03:44;;;;;;;25.13;13.02;;;7.90;99.90;;;;;;4977249;28;20038;-85
2022/12/23 11:06:11;;;;;;;31.95;14.88;;;7.90;99.90;;;;;;4993028;28;20401;-85
2022/12/23 11:08:38;;;;;;;24.58;12.65;;;7.90;99.90;;;;;;4994303;28;20082;-85
2022/12/23 11:11:05;;;;;;;25.48;13.45;;;7.90;99.90;;;;;;4977149;28;20469;-85
2022/12/23 11:13:31;;;;;;;30.17;15.32;;;7.90;99.90;;;;;;4975322;28;20051;-85
2022/12/23 11:16:13;;;;;;;34.88;16.00;;;7.90;99.90;;;;;;4976214;28;20045;-84
2022/12/23 11:19:01;;;;;;;21.00;12.60;;;7.90;99.90;;;;;;4994074;28;20046;-84
2022/12/23 11:21:29;;;;;;;32.35;15.70;;;7.90;99.90;;;;;;5015023;28;20125;-84
2022/12/23 11:24:15;;;;;;;25.25;13.73;;;7.90;99.90;;;;;;4995622;28;20042;-86
2022/12/23 11:26:42;;;;;;;21.23;11.63;;;7.90;99.90;;;;;;4997843;28;20042;-86
2022/12/23 11:29:21;;;;;;;25.70;13.05;;;8.00;99.90;;;;;;4995633;28;20046;-85
2022/12/23 11:31:47;;;;;;;18.85;10.73;;;8.00;99.90;;;;;;4976527;28;20494;-86
2022/12/23 11:34:22;;;;;;;19.35;11.10;;;8.00;99.90;;;;;;4983850;28;20045;-86
2022/12/23 11:37:20;;;;;;;20.25;11.43;;;7.90;99.90;;;;;;4976572;28;20108;-85
2022/12/23 11:39:45;;;;;;;16.92;10.48;;;8.00;99.90;;;;;;4976499;28;20058;-85
2022/12/23 11:42:16;;;;;;;17.85;10.57;;;8.00;99.90;;;;;;4975182;28;20043;-86
2022/12/23 11:44:45;;;;;;;16.92;10.35;;;8.00;99.90;;;;;;4993626;28;20051;-85
2022/12/23 11:47:36;;;;;;;16.88;10.52;;;8.00;99.90;;;;;;4978457;28;20042;-85
2022/12/23 11:50:23;;;;;;;16.88;10.07;;;8.00;99.90;;;;;;4975112;28;20039;-85
2022/12/23 11:52:51;;;;;;;17.98;10.93;;;7.90;99.90;;;;;;4993128;28;20085;-90
2022/12/23 11:55:28;;;;;;;15.98;10.07;;;8.00;99.90;;;;;;4975243;28;20054;-89
2022/12/23 11:57:55;;;;;;;17.70;10.55;;;8.00;99.90;;;;;;4999517;28;20050;-87
2022/12/23 12:00:26;;;;;;;17.38;9.73;;;8.00;99.90;;;;;;4978671;28;20038;-87
2022/12/23 12:03:00;;;;;;;15.65;8.82;;;7.90;99.90;;;;;;4976209;28;20591;-88
2022/12/23 12:05:51;;;;;;;16.77;9.98;;;7.90;99.90;;;;;;4978602;28;20077;-87
2022/12/23 12:08:27;;;;;;;16.67;10.13;;;7.90;99.90;;;;;;4976572;28;20061;-86
2022/12/23 12:11:01;;;;;;;16.00;9.75;;;8.00;99.90;;;;;;4959847;28;20047;-87
2022/12/23 12:13:35;;;;;;;15.50;9.35;;;8.00;99.90;;;;;;4974647;28;20046;-87
2022/12/23 12:16:26;;;;;;;16.15;9.05;;;8.00;99.90;;;;;;4997047;28;20121;-87
2022/12/23 12:18:56;;;;;;;15.80;9.07;;;7.90;99.90;;;;;;4997111;28;20049;-88
2022/12/23 12:21:26;;;;;;;17.50;8.82;;;8.00;99.90;;;;;;4996254;28;20047;-87
2022/12/23 12:23:57;;;;;;;15.73;9.65;;;8.00;99.90;;;;;;4978889;28;20065;-87
2022/12/23 12:26:32;;;;;;;18.45;9.40;;;8.00;99.90;;;;;;4996740;28;20038;-87
2022/12/23 12:29:14;;;;;;;14.90;8.98;;;8.00;99.90;;;;;;4996068;28;20082;-86
2022/12/23 12:31:46;;;;;;;14.35;8.43;;;8.00;99.90;;;;;;4996074;28;20401;-86
2022/12/23 12:34:32;;;;;;;17.17;8.65;;;8.00;99.90;;;;;;4996155;28;20050;-87
2022/12/23 12:37:21;;;;;;;16.02;8.88;;;8.00;99.90;;;;;;4996410;28;20398;-87
2022/12/23 12:39:57;;;;;;;14.63;8.70;;;8.00;99.90;;;;;;4995833;28;20074;-87
2022/12/23 12:42:31;;;;;;;14.48;8.18;;;8.00;99.90;;;;;;4995890;28;20049;-87
2022/12/23 12:45:15;;;;;;;13.40;8.52;;;8.00;99.90;;;;;;4978039;28;20121;-86
2022/12/23 12:48:16;;;;;;;14.15;8.40;;;8.10;99.90;;;;;;4978975;28;20552;-86
2022/12/23 12:50:59;;;;;;;13.80;7.80;;;8.10;99.90;;;;;;4983813;28;20043;-86
2022/12/23 12:53:29;;;;;;;13.68;8.07;;;8.10;99.90;;;;;;4995236;28;20042;-86
2022/12/23 12:56:01;;;;;;;13.13;7.43;;;8.10;99.90;;;;;;4996368;28;20068;-86
2022/12/23 12:58:27;;;;;;;14.23;8.18;;;8.10;99.90;;;;;;4994787;28;20077;-87
2022/12/23 13:01:04;;;;;;;13.90;8.43;;;8.10;99.90;;;;;;4974634;28;20043;-87
2022/12/23 13:04:04;;;;;;;13.60;8.02;;;8.10;99.90;;;;;;4983491;28;20052;-87
2022/12/23 13:06:29;;;;;;;13.40;7.85;;;8.10;99.90;;;;;;4993473;28;20038;-87
2022/12/23 13:09:09;;;;;;;13.90;7.53;;;8.10;99.90;;;;;;4979984;28;20074;-87
2022/12/23 13:11:42;;;;;;;12.35;7.35;;;8.10;99.90;;;;;;4995794;28;20050;-87
2022/12/23 13:14:32;;;;;;;14.23;7.75;;;8.10;99.90;;;;;;4994222;28;20050;-86
2022/12/23 13:17:05;;;;;;;14.05;7.90;;;8.10;99.90;;;;;;4989580;28;20060;-87
2022/12/23 13:19:48;;;;;;;14.02;7.95;;;8.10;99.90;;;;;;4975265;28;20104;-86
2022/12/23 13:22:26;;;;;;;12.73;7.60;;;8.10;99.90;;;;;;4976118;28;20463;-86
2022/12/23 13:25:10;;;;;;;13.10;8.00;;;8.00;99.90;;;;;;4976074;28;20393;-87